Weather at Copernicus Wrocław Airport

Public forecast

Using degrees Celsius for public forecast. Weather courtesy of forecast.io.

Current aviation weather report (METAR) for Copernicus Wrocław Airport

2024/05/30 21:00 (retrieved 13 minutes ago)

EPWR 302100Z 23005KT 190V250 CAVOK 16/14 Q1005

Aviation forecast (TAF) for Copernicus Wrocław Airport

2024/05/30 21:37 (retrieved 0 seconds ago)

TAF EPWR 302030Z 3021/3121 VRB02KT CAVOK TEMPO 3101/3105 1400 BR BECMG 3110/3112 08010KT TEMPO 3110/3121 SHRA BKN040CB PROB40 TEMPO 3112/3118 VRB15G25KT 3000 TSGR